createdAt,value
2022-10-02T00:03:14.991Z,101052.41
2022-10-02T00:07:55.840Z,101044.91
2022-10-02T00:12:11.668Z,101047.72
2022-10-02T00:16:29.207Z,101039.50
2022-10-02T00:20:53.604Z,101037.38
2022-10-02T00:25:23.572Z,101036.72
2022-10-02T00:29:44.406Z,101040.81
2022-10-02T00:34:21.445Z,101046.19
2022-10-02T00:38:44.541Z,101048.72
2022-10-02T00:43:33.595Z,101051.28
2022-10-02T00:48:07.773Z,101048.53
2022-10-02T00:52:37.839Z,101047.91
2022-10-02T00:57:32.640Z,101044.97
2022-10-02T01:01:58.588Z,101059.13
2022-10-02T01:06:11.241Z,101059.56
2022-10-02T01:10:27.690Z,101059.13
2022-10-02T01:14:40.650Z,101027.66
2022-10-02T01:18:52.241Z,101058.22
2022-10-02T01:23:16.977Z,101058.22
2022-10-02T01:27:28.446Z,101056.56
2022-10-02T01:31:39.962Z,101062.19
2022-10-02T01:35:51.586Z,101058.50
2022-10-02T01:40:09.213Z,101059.94
2022-10-02T01:44:21.510Z,101069.00
2022-10-02T01:48:45.923Z,101083.56
2022-10-02T01:53:23.747Z,101090.75
2022-10-02T01:57:59.663Z,101080.22
2022-10-02T02:02:19.794Z,101087.53
2022-10-02T02:06:47.853Z,101094.97
2022-10-02T02:11:13.301Z,101094.41
2022-10-02T02:15:34.040Z,101078.81
2022-10-02T02:19:55.966Z,101073.41
2022-10-02T02:24:18.434Z,101077.16
2022-10-02T02:28:32.509Z,101081.59
2022-10-02T02:32:55.645Z,101087.22
2022-10-02T02:37:13.761Z,101082.50
2022-10-02T02:41:28.329Z,101086.34
2022-10-02T02:45:49.015Z,101092.56
2022-10-02T02:50:06.362Z,101088.00
2022-10-02T02:54:26.163Z,101083.28
2022-10-02T02:58:49.502Z,101097.22
2022-10-02T03:03:01.085Z,101092.25
2022-10-02T03:07:17.320Z,101078.06
2022-10-02T03:12:00.971Z,101080.84
2022-10-02T03:16:42.395Z,101084.59
2022-10-02T03:21:02.301Z,101079.22
2022-10-02T03:25:31.751Z,101084.69
2022-10-02T03:29:49.754Z,101082.09
2022-10-02T03:34:03.180Z,101094.22
2022-10-02T03:38:15.932Z,101083.84
2022-10-02T03:42:32.984Z,101097.53
2022-10-02T03:46:44.446Z,101103.06
2022-10-02T03:50:55.901Z,101090.81
2022-10-02T03:55:35.899Z,101095.41
2022-10-02T03:59:53.268Z,101100.72
2022-10-02T04:04:17.718Z,101095.78
2022-10-02T04:08:38.624Z,101094.69
2022-10-02T04:12:57.590Z,101100.53
2022-10-02T04:17:15.727Z,101104.88
2022-10-02T04:21:42.203Z,101114.50
2022-10-02T04:26:06.025Z,101114.28
2022-10-02T04:30:19.492Z,101116.47
2022-10-02T04:34:30.933Z,101108.81
2022-10-02T04:39:12.167Z,101120.19
2022-10-02T04:43:44.872Z,101119.22
2022-10-02T04:48:16.699Z,101123.63
2022-10-02T04:52:49.414Z,101126.66
2022-10-02T04:57:22.195Z,101136.84
2022-10-02T05:02:07.157Z,101145.81
2022-10-02T05:06:34.074Z,101142.16
2022-10-02T05:11:10.955Z,101132.66
2022-10-02T05:15:48.332Z,101140.34
2022-10-02T05:20:19.418Z,101142.59
2022-10-02T05:24:34.876Z,101153.16
2022-10-02T05:29:04.544Z,101137.34
2022-10-02T05:33:34.598Z,101166.75
2022-10-02T05:37:45.953Z,101169.44
2022-10-02T05:42:00.359Z,101191.47
2022-10-02T05:46:18.951Z,101204.16
2022-10-02T05:50:35.052Z,101188.66
2022-10-02T05:54:58.525Z,101197.97
2022-10-02T05:59:37.771Z,101189.81
2022-10-02T06:04:17.386Z,101185.72
2022-10-02T06:08:33.473Z,101207.34
2022-10-02T06:12:47.912Z,101197.00
2022-10-02T06:17:04.239Z,101193.31
2022-10-02T06:21:31.284Z,101205.00
2022-10-02T06:26:07.606Z,101217.69
2022-10-02T06:30:19.818Z,101207.47
2022-10-02T06:34:31.389Z,101208.09
2022-10-02T06:38:48.903Z,101217.25
2022-10-02T06:43:10.605Z,101220.69
2022-10-02T06:47:28.152Z,101220.50
2022-10-02T06:52:06.716Z,101218.75
2022-10-02T06:56:29.955Z,101228.50
2022-10-02T07:01:23.906Z,101238.50
2022-10-02T07:05:53.296Z,101236.16
2022-10-02T07:10:23.720Z,101248.84
2022-10-02T07:15:14.026Z,101245.94
2022-10-02T07:19:34.642Z,101268.91
2022-10-02T07:23:50.306Z,101269.03
2022-10-02T07:28:05.798Z,101265.84
2022-10-02T07:32:42.257Z,101279.84
2022-10-02T07:37:17.654Z,101286.13
2022-10-02T07:41:53.190Z,101284.72
2022-10-02T07:46:31.619Z,101284.34
2022-10-02T07:51:52.494Z,101292.50
2022-10-02T07:56:06.445Z,101302.88
2022-10-02T08:00:22.585Z,101305.47
2022-10-02T08:04:37.227Z,101312.78
2022-10-02T08:09:13.709Z,101314.38
2022-10-02T08:13:33.511Z,101323.94
2022-10-02T08:17:58.680Z,101314.63
2022-10-02T08:22:25.796Z,101321.03
2022-10-02T08:26:46.114Z,101333.28
2022-10-02T08:30:58.705Z,101335.91
2022-10-02T08:35:19.407Z,101328.56
2022-10-02T08:39:58.404Z,101339.00
2022-10-02T08:44:36.018Z,101342.38
2022-10-02T08:49:18.844Z,101357.63
2022-10-02T08:53:33.264Z,101356.59
2022-10-02T08:58:03.398Z,101375.97
2022-10-02T09:02:55.333Z,101374.78
2022-10-02T09:07:28.153Z,101380.69
2022-10-02T09:12:02.428Z,101375.16
2022-10-02T09:16:59.122Z,101377.34
2022-10-02T09:21:13.404Z,101380.69
2022-10-02T09:25:30.916Z,101385.63
2022-10-02T09:30:09.862Z,101377.81
2022-10-02T09:34:30.236Z,101384.38
2022-10-02T09:39:15.880Z,101383.91
2022-10-02T09:43:56.313Z,101398.03
2022-10-02T09:48:30.316Z,101400.09
2022-10-02T09:53:12.656Z,101400.50
2022-10-02T09:57:45.208Z,101401.34
2022-10-02T10:02:26.100Z,101412.69
2022-10-02T10:07:18.898Z,101400.94
2022-10-02T10:11:33.748Z,101414.31
2022-10-02T10:16:06.579Z,101411.78
2022-10-02T10:20:44.130Z,101418.97
2022-10-02T10:25:20.887Z,101424.22
2022-10-02T10:30:03.868Z,101423.31
2022-10-02T10:35:03.514Z,101411.06
2022-10-02T10:39:52.463Z,101425.09
2022-10-02T10:44:16.178Z,101417.16
2022-10-02T10:49:00.497Z,101427.50
2022-10-02T10:53:40.769Z,101447.22
2022-10-02T10:58:08.648Z,101443.06
2022-10-02T11:02:20.132Z,101458.88
2022-10-02T11:06:34.660Z,101464.03
2022-10-02T11:11:01.236Z,101465.66
2022-10-02T11:15:28.874Z,101472.19
2022-10-02T11:19:47.588Z,101474.41
2022-10-02T11:24:13.535Z,101479.63
2022-10-02T11:28:46.973Z,101467.97
2022-10-02T11:33:15.100Z,101469.59
2022-10-02T11:38:00.613Z,101482.44
2022-10-02T11:42:38.316Z,101484.63
2022-10-02T11:47:17.979Z,101479.41
2022-10-02T11:51:47.631Z,101481.91
2022-10-02T11:56:22.944Z,101492.81
2022-10-02T12:00:58.858Z,101488.19
2022-10-02T12:05:17.893Z,101497.47
2022-10-02T12:09:56.898Z,101497.97
2022-10-02T12:14:17.208Z,101497.22
2022-10-02T12:18:47.250Z,101496.66
2022-10-02T12:23:35.869Z,101503.09
2022-10-02T12:28:20.079Z,101494.09
2022-10-02T12:32:49.854Z,101507.19
2022-10-02T12:37:09.584Z,101507.50
2022-10-02T12:41:58.854Z,101509.47
2022-10-02T12:46:22.520Z,101522.00
2022-10-02T12:50:52.994Z,101517.91
2022-10-02T12:55:46.482Z,101512.47
2022-10-02T13:00:18.551Z,101516.56
2022-10-02T13:04:43.761Z,101514.94
2022-10-02T13:09:28.143Z,101523.03
2022-10-02T13:14:02.124Z,101524.84
2022-10-02T13:18:19.686Z,101527.50
2022-10-02T13:22:44.552Z,101529.69
2022-10-02T13:27:10.461Z,101522.06
2022-10-02T13:31:40.645Z,101530.03
2022-10-02T13:36:17.052Z,101520.94
2022-10-02T13:40:55.087Z,101535.41
2022-10-02T13:45:26.323Z,101541.00
2022-10-02T13:50:07.153Z,101544.91
2022-10-02T13:55:04.998Z,101560.16
2022-10-02T13:59:27.486Z,101545.88
2022-10-02T14:03:56.588Z,101550.94
2022-10-02T14:08:14.038Z,101531.91
2022-10-02T14:12:28.461Z,101547.81
2022-10-02T14:16:54.668Z,101544.25
2022-10-02T14:21:17.901Z,101554.91
2022-10-02T14:25:49.168Z,101570.78
2022-10-02T14:30:07.230Z,101560.44
2022-10-02T14:34:24.770Z,101573.06
2022-10-02T14:38:54.993Z,101585.88
2022-10-02T14:43:40.409Z,101585.75
2022-10-02T14:48:07.244Z,101586.19
2022-10-02T14:53:12.921Z,101600.03
2022-10-02T14:57:47.945Z,101610.31
2022-10-02T15:02:11.569Z,101613.09
2022-10-02T15:06:36.499Z,101604.03
2022-10-02T15:10:49.250Z,101620.56
2022-10-02T15:15:13.822Z,101611.25
2022-10-02T15:19:40.043Z,101609.44
2022-10-02T15:23:51.686Z,101614.94
2022-10-02T15:28:36.262Z,101632.25
2022-10-02T15:32:54.860Z,101621.09
2022-10-02T15:37:18.436Z,101624.00
2022-10-02T15:41:40.583Z,101633.22
2022-10-02T15:46:17.504Z,101658.31
2022-10-02T15:50:50.184Z,101652.03
2022-10-02T15:55:25.096Z,101657.56
2022-10-02T15:59:51.900Z,101669.09
2022-10-02T16:04:15.156Z,101675.31
2022-10-02T16:08:57.724Z,101691.59
2022-10-02T16:13:30.765Z,101682.59
2022-10-02T16:18:03.093Z,101693.00
2022-10-02T16:22:19.923Z,101712.06
2022-10-02T16:27:03.286Z,101705.81
2022-10-02T16:31:39.055Z,101709.59
2022-10-02T16:35:50.682Z,101721.28
2022-10-02T16:40:26.832Z,101735.31
2022-10-02T16:44:47.273Z,101756.19
2022-10-02T16:49:24.724Z,101756.78
2022-10-02T16:53:58.182Z,101760.78
2022-10-02T16:58:43.590Z,101762.41
2022-10-02T17:02:55.139Z,101777.13
2022-10-02T17:07:29.852Z,101788.16
2022-10-02T17:11:54.095Z,101777.81
2022-10-02T17:16:12.201Z,101788.97
2022-10-02T17:20:28.296Z,101804.94
2022-10-02T17:24:46.661Z,101813.16
2022-10-02T17:29:14.714Z,101808.50
2022-10-02T17:33:32.256Z,101829.31
2022-10-02T17:37:57.094Z,101823.06
2022-10-02T17:42:28.286Z,101817.66
2022-10-02T17:46:49.726Z,101846.59
2022-10-02T17:51:53.732Z,101864.38
2022-10-02T17:56:33.194Z,101872.75
2022-10-02T18:01:12.355Z,101874.50
2022-10-02T18:05:26.772Z,101893.25
2022-10-02T18:10:03.574Z,101889.84
2022-10-02T18:14:40.059Z,101897.41
2022-10-02T18:19:20.888Z,101887.72
2022-10-02T18:24:04.161Z,101895.03
2022-10-02T18:28:29.901Z,101909.16
2022-10-02T18:32:55.726Z,101915.00
2022-10-02T18:37:27.914Z,101915.91
2022-10-02T18:41:59.580Z,101925.66
2022-10-02T18:46:49.733Z,101924.63
2022-10-02T18:51:31.914Z,101942.13
2022-10-02T18:56:22.181Z,101934.47
2022-10-02T19:01:04.710Z,101947.56
2022-10-02T19:05:29.265Z,101947.59
2022-10-02T19:09:41.448Z,101957.38
2022-10-02T19:13:53.017Z,101943.47
2022-10-02T19:18:07.029Z,101949.53
2022-10-02T19:22:25.871Z,101954.09
2022-10-02T19:26:43.970Z,101961.56
2022-10-02T19:31:00.920Z,101955.56
2022-10-02T19:35:19.291Z,101953.06
2022-10-02T19:39:43.033Z,101974.84
2022-10-02T19:44:06.862Z,101983.38
2022-10-02T19:48:18.979Z,101986.50
2022-10-02T19:52:43.532Z,101994.78
2022-10-02T19:57:07.813Z,101983.97
2022-10-02T20:01:23.203Z,102010.13
2022-10-02T20:05:36.926Z,102016.53
2022-10-02T20:09:54.499Z,102012.81
2022-10-02T20:14:11.238Z,102034.38
2022-10-02T20:18:24.552Z,102008.41
2022-10-02T20:23:05.281Z,102037.25
2022-10-02T20:27:43.165Z,102034.16
2022-10-02T20:32:02.002Z,102039.50
2022-10-02T20:36:19.575Z,102021.66
2022-10-02T20:40:36.639Z,102051.28
2022-10-02T20:44:48.592Z,102039.44
2022-10-02T20:49:25.085Z,102055.00
2022-10-02T20:53:52.485Z,102061.00
2022-10-02T20:58:38.253Z,102075.06
2022-10-02T21:03:25.199Z,102075.88
2022-10-02T21:07:55.745Z,102066.06
2022-10-02T21:12:46.527Z,102082.50
2022-10-02T21:17:25.018Z,102089.34
2022-10-02T21:21:53.692Z,102079.13
2022-10-02T21:26:26.963Z,102113.56
2022-10-02T21:31:06.409Z,102111.84
2022-10-02T21:35:57.216Z,102129.84
2022-10-02T21:40:45.753Z,102134.97
2022-10-02T21:45:04.358Z,102137.41
2022-10-02T21:49:39.306Z,102122.38
2022-10-02T21:54:32.848Z,102143.13
2022-10-02T21:59:03.088Z,102140.16
2022-10-02T22:03:27.667Z,102146.78
2022-10-02T22:07:50.687Z,102139.50
2022-10-02T22:12:07.723Z,102140.91
2022-10-02T22:16:42.188Z,102146.03
2022-10-02T22:21:09.008Z,102160.72
2022-10-02T22:25:44.999Z,102176.47
2022-10-02T22:29:57.775Z,102171.44
2022-10-02T22:34:27.463Z,102181.38
2022-10-02T22:39:03.453Z,102181.28
2022-10-02T22:43:30.786Z,102171.69
2022-10-02T22:48:29.263Z,102181.25
2022-10-02T22:52:51.084Z,102172.41
2022-10-02T22:57:02.545Z,102183.22
2022-10-02T23:01:24.723Z,102175.66
2022-10-02T23:05:36.223Z,102190.97
2022-10-02T23:09:57.674Z,102183.00
2022-10-02T23:14:23.147Z,102158.78
2022-10-02T23:18:45.569Z,102177.38
2022-10-02T23:23:19.263Z,102166.59
2022-10-02T23:27:50.333Z,102181.03
2022-10-02T23:32:27.768Z,102173.19
2022-10-02T23:36:59.334Z,102178.56
2022-10-02T23:41:47.851Z,102178.84
2022-10-02T23:46:06.697Z,102169.41
2022-10-02T23:50:24.031Z,102180.16
2022-10-02T23:55:00.827Z,102185.88
2022-10-02T23:59:31.285Z,102186.06
